Time;durP1;ratioP1;P1;durP2;ratioP2;P2;SDS_P1;SDS_P2;PMS_P1;PMS_P2;Temp;Humidity;BMP_temperature;BMP_pressure;BME280_temperature;BME280_humidity;BME280_pressure;Samples;Min_cycle;Max_cycle;Signal;HPM_P1;HPM_P2
2023/04/23 00:01:43;;;;;;;;;;;;;;;;;;5071926;28;19908;-68
2023/04/23 00:04:09;;;;;;;;;;;;;;;;;;5073590;28;19909;-68
2023/04/23 00:06:35;;;;;;;;;;;;;;;;;;5073225;28;19932;-68
2023/04/23 00:09:02;;;;;;;;;;;;;;;;;;5072353;28;20361;-68
2023/04/23 00:11:28;;;;;;;;;;;;;;;;;;5073781;28;19916;-68
2023/04/23 00:13:54;;;;;;;;;;;;;;;;;;5073174;28;19908;-68
2023/04/23 00:16:20;;;;;;;;;;;;;;;;;;5073429;28;19994;-68
2023/04/23 00:18:46;;;;;;;;;;;;;;;;;;5073384;28;20331;-67
2023/04/23 00:21:12;;;;;;;;;;;;;;;;;;5073238;28;19915;-67
2023/04/23 00:23:38;;;;;;;;;;;;;;;;;;5073353;28;19909;-67
2023/04/23 00:26:04;;;;;;;;;;;;;;;;;;5073423;28;19908;-67
2023/04/23 00:28:30;;;;;;;;;;;;;;;;;;5073004;28;19947;-68
2023/04/23 00:30:56;;;;;;;;;;;;;;;;;;5073361;28;19909;-68
2023/04/23 00:33:22;;;;;;;;;;;;;;;;;;5073351;28;19908;-68
2023/04/23 00:35:48;;;;;;;;;;;;;;;;;;5072836;28;19913;-69
2023/04/23 00:38:14;;;;;;;;;;;;;;;;;;5073652;28;19913;-69
2023/04/23 00:40:40;;;;;;;;;;;;;;;;;;5073547;28;20380;-69
2023/04/23 00:43:06;;;;;;;;;;;;;;;;;;5073906;28;20292;-70
2023/04/23 00:45:32;;;;;;;;;;;;;;;;;;5077030;28;19934;-71
2023/04/23 00:47:58;;;;;;;;;;;;;;;;;;5076981;28;19912;-69
2023/04/23 00:50:24;;;;;;;;;;;;;;;;;;5076600;28;19999;-68
2023/04/23 00:52:50;;;;;;;;;;;;;;;;;;5076860;28;19931;-68
2023/04/23 00:55:16;;;;;;;;;;;;;;;;;;5075592;28;20345;-69
2023/04/23 00:57:42;;;;;;;;;;;;;;;;;;5076273;28;19927;-68
2023/04/23 01:00:08;;;;;;;;;;;;;;;;;;5076771;28;19970;-71
2023/04/23 01:02:35;;;;;;;;;;;;;;;;;;5076803;28;19916;-71
2023/04/23 01:05:01;;;;;;;;;;;;;;;;;;5076284;28;19912;-68
2023/04/23 01:07:27;;;;;;;;;;;;;;;;;;5075394;28;19908;-69
2023/04/23 01:09:53;;;;;;;;;;;;;;;;;;5076367;28;19908;-69
2023/04/23 01:12:19;;;;;;;;;;;;;;;;;;5076573;28;20261;-68
2023/04/23 01:14:45;;;;;;;;;;;;;;;;;;5075171;28;20261;-68
2023/04/23 01:17:11;;;;;;;;;;;;;;;;;;5076038;28;19920;-68
2023/04/23 01:19:37;;;;;;;;;;;;;;;;;;5076697;28;19999;-69
2023/04/23 01:22:03;;;;;;;;;;;;;;;;;;5076385;28;19962;-68
2023/04/23 01:24:29;;;;;;;;;;;;;;;;;;5075933;28;19912;-67
2023/04/23 01:26:57;;;;;;;;;;;;;;;;;;5076505;28;19923;-68
2023/04/23 01:29:23;;;;;;;;;;;;;;;;;;5076200;28;20286;-68
2023/04/23 01:31:49;;;;;;;;;;;;;;;;;;5074516;28;19909;-68
2023/04/23 01:34:15;;;;;;;;;;;;;;;;;;5076216;28;19954;-67
2023/04/23 01:36:41;;;;;;;;;;;;;;;;;;5076028;28;20388;-67
2023/04/23 01:39:07;;;;;;;;;;;;;;;;;;5075696;28;20395;-67
2023/04/23 01:41:33;;;;;;;;;;;;;;;;;;5074782;28;20012;-69
2023/04/23 01:43:59;;;;;;;;;;;;;;;;;;5074752;28;20372;-68
2023/04/23 01:46:25;;;;;;;;;;;;;;;;;;5075680;28;20284;-68
2023/04/23 01:48:51;;;;;;;;;;;;;;;;;;5076199;28;20380;-68
2023/04/23 01:51:17;;;;;;;;;;;;;;;;;;5075856;28;20412;-68
2023/04/23 01:53:43;;;;;;;;;;;;;;;;;;5075314;28;20373;-68
2023/04/23 01:56:09;;;;;;;;;;;;;;;;;;5074234;28;20399;-68
2023/04/23 01:58:35;;;;;;;;;;;;;;;;;;5075732;28;19908;-68
2023/04/23 02:01:01;;;;;;;;;;;;;;;;;;5075266;28;19919;-68
2023/04/23 02:03:27;;;;;;;;;;;;;;;;;;5075588;28;19951;-68
2023/04/23 02:05:53;;;;;;;;;;;;;;;;;;5075751;28;19909;-67
2023/04/23 02:08:19;;;;;;;;;;;;;;;;;;5075128;28;19909;-69
2023/04/23 02:10:45;;;;;;;;;;;;;;;;;;5075473;28;19952;-69
2023/04/23 02:13:11;;;;;;;;;;;;;;;;;;5075034;28;20366;-69
2023/04/23 02:15:37;;;;;;;;;;;;;;;;;;5075321;28;20206;-69
2023/04/23 02:18:03;;;;;;;;;;;;;;;;;;5075223;28;19924;-68
2023/04/23 02:20:29;;;;;;;;;;;;;;;;;;5073545;28;19909;-69
2023/04/23 02:22:55;;;;;;;;;;;;;;;;;;5073953;28;20308;-69
2023/04/23 02:25:21;;;;;;;;;;;;;;;;;;5073865;28;19912;-69
2023/04/23 02:27:47;;;;;;;;;;;;;;;;;;5074891;28;19908;-69
2023/04/23 02:30:14;;;;;;;;;;;;;;;;;;5075537;28;19908;-69
2023/04/23 02:32:41;;;;;;;;;;;;;;;;;;5075317;28;19909;-69
2023/04/23 02:35:08;;;;;;;;;;;;;;;;;;5074549;28;19947;-69
2023/04/23 02:37:34;;;;;;;;;;;;;;;;;;5074900;28;19916;-69
2023/04/23 02:40:00;;;;;;;;;;;;;;;;;;5074883;28;19963;-69
2023/04/23 02:42:26;;;;;;;;;;;;;;;;;;5073152;28;19996;-69
2023/04/23 02:44:52;;;;;;;;;;;;;;;;;;5074739;28;19955;-69
2023/04/23 02:47:18;;;;;;;;;;;;;;;;;;5074297;28;19934;-69
2023/04/23 02:49:44;;;;;;;;;;;;;;;;;;5074191;28;19962;-68
2023/04/23 02:52:10;;;;;;;;;;;;;;;;;;5074906;28;19916;-69
2023/04/23 02:54:36;;;;;;;;;;;;;;;;;;5074576;28;20367;-68
2023/04/23 02:57:02;;;;;;;;;;;;;;;;;;5073905;28;19945;-68
2023/04/23 02:59:28;;;;;;;;;;;;;;;;;;5074523;28;20269;-69
2023/04/23 03:01:54;;;;;;;;;;;;;;;;;;5074454;28;19908;-68
2023/04/23 03:04:20;;;;;;;;;;;;;;;;;;5074032;28;19915;-68
2023/04/23 03:06:46;;;;;;;;;;;;;;;;;;5073962;28;19908;-69
2023/04/23 03:09:12;;;;;;;;;;;;;;;;;;5073064;28;20287;-69
2023/04/23 03:11:38;;;;;;;;;;;;;;;;;;5074020;28;20003;-69
2023/04/23 03:14:04;;;;;;;;;;;;;;;;;;5074246;28;19935;-67
2023/04/23 03:16:30;;;;;;;;;;;;;;;;;;5073819;28;19913;-67
2023/04/23 03:18:56;;;;;;;;;;;;;;;;;;5074196;28;19995;-67
2023/04/23 03:21:22;;;;;;;;;;;;;;;;;;5072895;28;19948;-67
2023/04/23 03:23:48;;;;;;;;;;;;;;;;;;5073724;28;19920;-67
2023/04/23 03:26:14;;;;;;;;;;;;;;;;;;5074121;28;19912;-67
2023/04/23 03:28:40;;;;;;;;;;;;;;;;;;5074076;28;19915;-67
2023/04/23 03:31:06;;;;;;;;;;;;;;;;;;5073614;28;19915;-67
2023/04/23 03:33:32;;;;;;;;;;;;;;;;;;5073998;28;19931;-68
2023/04/23 03:35:58;;;;;;;;;;;;;;;;;;5074183;28;19999;-67
2023/04/23 03:38:24;;;;;;;;;;;;;;;;;;5073450;28;20015;-67
2023/04/23 03:40:50;;;;;;;;;;;;;;;;;;5073872;28;19908;-67
2023/04/23 03:43:16;;;;;;;;;;;;;;;;;;5073886;28;19915;-68
2023/04/23 03:45:42;;;;;;;;;;;;;;;;;;5072194;28;19908;-69
2023/04/23 03:48:08;;;;;;;;;;;;;;;;;;5074255;28;19908;-68
2023/04/23 03:50:37;;;;;;;;;;;;;;;;;;5073898;28;19920;-68
2023/04/23 03:53:03;;;;;;;;;;;;;;;;;;5073363;28;20384;-68
2023/04/23 03:55:29;;;;;;;;;;;;;;;;;;5073751;28;19908;-68
2023/04/23 03:57:55;;;;;;;;;;;;;;;;;;5073489;28;20380;-68
2023/04/23 04:00:21;;;;;;;;;;;;;;;;;;5073334;28;20412;-68
2023/04/23 04:02:47;;;;;;;;;;;;;;;;;;5072501;28;20272;-68
2023/04/23 04:05:13;;;;;;;;;;;;;;;;;;5073658;28;19909;-68
2023/04/23 04:07:40;;;;;;;;;;;;;;;;;;5073205;28;19956;-68
2023/04/23 04:10:06;;;;;;;;;;;;;;;;;;5072389;28;19908;-68
2023/04/23 04:12:32;;;;;;;;;;;;;;;;;;5073625;28;19995;-68
2023/04/23 04:15:10;;;;;;;;;;;;;;;;;;5073192;28;20347;-68
2023/04/23 04:17:36;;;;;;;;;;;;;;;;;;5074081;28;19923;-68
2023/04/23 04:20:02;;;;;;;;;;;;;;;;;;5077133;28;19991;-68
2023/04/23 04:22:28;;;;;;;;;;;;;;;;;;5077784;28;19908;-68
2023/04/23 04:24:55;;;;;;;;;;;;;;;;;;5077629;28;19954;-68
2023/04/23 04:27:21;;;;;;;;;;;;;;;;;;5077037;28;19994;-68
2023/04/23 04:29:47;;;;;;;;;;;;;;;;;;5077460;28;19908;-68
2023/04/23 04:32:13;;;;;;;;;;;;;;;;;;5077371;28;19915;-68
2023/04/23 04:34:39;;;;;;;;;;;;;;;;;;5076869;28;20282;-68
2023/04/23 04:37:05;;;;;;;;;;;;;;;;;;5077122;28;19962;-68
2023/04/23 04:39:31;;;;;;;;;;;;;;;;;;5076228;28;20272;-68
2023/04/23 04:41:58;;;;;;;;;;;;;;;;;;5077019;28;19908;-68
2023/04/23 04:44:24;;;;;;;;;;;;;;;;;;5077122;28;19909;-68
2023/04/23 04:46:51;;;;;;;;;;;;;;;;;;5075844;28;19961;-69
2023/04/23 04:49:18;;;;;;;;;;;;;;;;;;5076575;28;19931;-68
2023/04/23 04:51:44;;;;;;;;;;;;;;;;;;5077395;28;19916;-69
2023/04/23 04:54:10;;;;;;;;;;;;;;;;;;5076934;28;19920;-69
2023/04/23 04:56:36;;;;;;;;;;;;;;;;;;5076195;28;19927;-68
2023/04/23 04:59:02;;;;;;;;;;;;;;;;;;5076874;28;19908;-69
2023/04/23 05:01:28;;;;;;;;;;;;;;;;;;5075463;28;20339;-68
2023/04/23 05:03:54;;;;;;;;;;;;;;;;;;5076337;28;19951;-68
2023/04/23 05:06:20;;;;;;;;;;;;;;;;;;5076706;28;19908;-69
2023/04/23 05:08:49;;;;;;;;;;;;;;;;;;5076586;28;19909;-68
2023/04/23 05:11:15;;;;;;;;;;;;;;;;;;5076227;28;19962;-67
2023/04/23 05:13:41;;;;;;;;;;;;;;;;;;5076532;28;19912;-69
2023/04/23 05:16:07;;;;;;;;;;;;;;;;;;5076026;28;19915;-69
2023/04/23 05:18:33;;;;;;;;;;;;;;;;;;5075123;28;19909;-69
2023/04/23 05:20:59;;;;;;;;;;;;;;;;;;5076448;28;20412;-68
2023/04/23 05:23:25;;;;;;;;;;;;;;;;;;5076071;28;20357;-68
2023/04/23 05:25:54;;;;;;;;;;;;;;;;;;5076251;28;19974;-68
2023/04/23 05:28:20;;;;;;;;;;;;;;;;;;5075940;28;19909;-68
2023/04/23 05:30:46;;;;;;;;;;;;;;;;;;5074484;28;19908;-69
2023/04/23 05:33:12;;;;;;;;;;;;;;;;;;5076202;28;19915;-68
2023/04/23 05:35:38;;;;;;;;;;;;;;;;;;5074884;28;19909;-67
2023/04/23 05:38:05;;;;;;;;;;;;;;;;;;5075644;28;19920;-68
2023/04/23 05:40:31;;;;;;;;;;;;;;;;;;5076019;28;19919;-67
2023/04/23 05:42:57;;;;;;;;;;;;;;;;;;5076012;28;19908;-69
2023/04/23 05:45:23;;;;;;;;;;;;;;;;;;5075660;28;19909;-69
2023/04/23 05:47:49;;;;;;;;;;;;;;;;;;5074648;28;19927;-69
2023/04/23 05:50:15;;;;;;;;;;;;;;;;;;5075941;28;19954;-68
2023/04/23 05:52:41;;;;;;;;;;;;;;;;;;5075458;28;19915;-67
2023/04/23 05:55:08;;;;;;;;;;;;;;;;;;5075895;28;19995;-68
2023/04/23 05:57:34;;;;;;;;;;;;;;;;;;5075620;28;19920;-70
2023/04/23 06:00:00;;;;;;;;;;;;;;;;;;5074014;28;19954;-70
2023/04/23 06:02:28;;;;;;;;;;;;;;;;;;5075690;28;19908;-70
2023/04/23 06:04:54;;;;;;;;;;;;;;;;;;5075633;28;19909;-69
2023/04/23 06:07:20;;;;;;;;;;;;;;;;;;5073871;28;20042;-70
2023/04/23 06:09:45;;;;;;;;;;;;;;;;;;5075535;28;19908;-69
2023/04/23 06:12:11;;;;;;;;;;;;;;;;;;5075108;28;19913;-69
2023/04/23 06:14:37;;;;;;;;;;;;;;;;;;5075434;28;19915;-69
2023/04/23 06:17:03;;;;;;;;;;;;;;;;;;5075258;28;19960;-69
2023/04/23 06:19:29;;;;;;;;;;;;;;;;;;5073664;28;19908;-69
2023/04/23 06:21:55;;;;;;;;;;;;;;;;;;5075318;28;20345;-69
2023/04/23 06:24:21;;;;;;;;;;;;;;;;;;5075242;28;20415;-69
2023/04/23 06:26:47;;;;;;;;;;;;;;;;;;5074755;28;19931;-69
2023/04/23 06:29:13;;;;;;;;;;;;;;;;;;5075108;28;19917;-69
2023/04/23 06:31:40;;;;;;;;;;;;;;;;;;5073731;28;19909;-69
2023/04/23 06:34:06;;;;;;;;;;;;;;;;;;5074582;28;20258;-69
2023/04/23 06:36:32;;;;;;;;;;;;;;;;;;5074832;28;19920;-68
2023/04/23 06:38:58;;;;;;;;;;;;;;;;;;5074899;28;19908;-69
2023/04/23 06:41:24;;;;;;;;;;;;;;;;;;5073692;28;20363;-68
2023/04/23 06:43:50;;;;;;;;;;;;;;;;;;5075044;28;19915;-68
2023/04/23 06:46:16;;;;;;;;;;;;;;;;;;5075186;28;20276;-69
2023/04/23 06:48:42;;;;;;;;;;;;;;;;;;5074203;28;19916;-69
2023/04/23 06:51:08;;;;;;;;;;;;;;;;;;5074634;28;20281;-69
2023/04/23 06:53:34;;;;;;;;;;;;;;;;;;5074682;28;20280;-68
2023/04/23 06:56:00;;;;;;;;;;;;;;;;;;5073946;28;19981;-68
2023/04/23 06:58:30;;;;;;;;;;;;;;;;;;5074624;28;19912;-69
2023/04/23 07:00:56;;;;;;;;;;;;;;;;;;5074499;28;20303;-68
2023/04/23 07:03:22;;;;;;;;;;;;;;;;;;5074138;28;20375;-69
2023/04/23 07:05:48;;;;;;;;;;;;;;;;;;5074420;28;19913;-69
2023/04/23 07:08:14;;;;;;;;;;;;;;;;;;5074707;28;19915;-68
2023/04/23 07:10:40;;;;;;;;;;;;;;;;;;5073962;28;20364;-68
2023/04/23 07:13:06;;;;;;;;;;;;;;;;;;5074325;28;19908;-68
2023/04/23 07:15:32;;;;;;;;;;;;;;;;;;5074141;28;19915;-67
2023/04/23 07:17:58;;;;;;;;;;;;;;;;;;5074129;28;20265;-67
2023/04/23 07:20:25;;;;;;;;;;;;;;;;;;5073113;28;19916;-69
2023/04/23 07:22:51;;;;;;;;;;;;;;;;;;5073849;28;19912;-68
2023/04/23 07:25:17;;;;;;;;;;;;;;;;;;5074463;28;19908;-68
2023/04/23 07:27:43;;;;;;;;;;;;;;;;;;5073905;28;19952;-69
2023/04/23 07:30:09;;;;;;;;;;;;;;;;;;5073804;28;19956;-68
2023/04/23 07:32:35;;;;;;;;;;;;;;;;;;5073997;28;19908;-68
2023/04/23 07:35:01;;;;;;;;;;;;;;;;;;5072651;28;20323;-68
2023/04/23 07:37:27;;;;;;;;;;;;;;;;;;5073485;28;20262;-69
2023/04/23 07:39:53;;;;;;;;;;;;;;;;;;5073977;28;20011;-69
2023/04/23 07:42:19;;;;;;;;;;;;;;;;;;5073919;28;19912;-68
2023/04/23 07:44:45;;;;;;;;;;;;;;;;;;5073688;28;19915;-68
2023/04/23 07:47:11;;;;;;;;;;;;;;;;;;5073752;28;20019;-68
2023/04/23 07:49:37;;;;;;;;;;;;;;;;;;5073743;28;19909;-68
2023/04/23 07:52:03;;;;;;;;;;;;;;;;;;5073212;28;19908;-69
2023/04/23 07:54:29;;;;;;;;;;;;;;;;;;5074108;28;19916;-67
2023/04/23 07:56:56;;;;;;;;;;;;;;;;;;5073255;28;19924;-68
2023/04/23 08:01:57;;;;;;;;;;;;;;;;;;5091441;27;19916;-68
2023/04/23 08:07:47;;;;;;;;;;;;;;;;;;5091723;27;20399;-69
2023/04/23 08:12:19;;;;;;;;;;;;;;;;;;5091509;27;20422;-69
2023/04/23 08:19:05;;;;;;;;;;;;;;;;;;5091498;27;19919;-69
2023/04/23 08:21:31;;;;;;;;;;;;;;;;;;5091973;28;20335;-68
2023/04/23 08:24:45;;;;;;;;;;;;;;;;;;5092056;27;19923;-68
2023/04/23 08:27:11;;;;;;;;;;;;;;;;;;5090976;28;19999;-68
2023/04/23 08:33:03;;;;;;;;;;;;;;;;;;5090966;27;19923;-70
2023/04/23 08:37:19;;;;;;;;;;;;;;;;;;5132482;27;20379;-68
2023/04/23 08:39:45;;;;;;;;;;;;;;;;;;5130946;28;19918;-70
2023/04/23 08:44:29;;;;;;;;;;;;;;;;;;5091551;27;19920;-68
2023/04/23 08:46:55;;;;;;;;;;;;;;;;;;5091118;28;20011;-68
2023/04/23 08:49:21;;;;;;;;;;;;;;;;;;5091474;28;19999;-68
2023/04/23 08:56:22;;;;;;;;;;;;;;;;;;5111671;27;19916;-68
2023/04/23 08:58:48;;;;;;;;;;;;;;;;;;5111716;28;20435;-68
2023/04/23 09:01:14;;;;;;;;;;;;;;;;;;5111172;28;19943;-68
2023/04/23 09:04:31;;;;;;;;;;;;;;;;;;5153093;27;20349;-68
2023/04/23 09:06:57;;;;;;;;;;;;;;;;;;5153527;27;19931;-68
2023/04/23 09:09:23;;;;;;;;;;;;;;;;;;5133919;27;20002;-68
2023/04/23 09:11:49;;;;;;;;;;;;;;;;;;5152768;27;19915;-68
2023/04/23 09:14:55;;;;;;;;;;;;;;;;;;5091484;27;19916;-68
2023/04/23 09:18:56;;;;;;;;;;;;;;;;;;5092188;27;19939;-67
2023/04/23 09:30:30;;;;;;;;;;;;;;;;;;5152713;27;19911;-67
2023/04/23 09:32:56;;;;;;;;;;;;;;;;;;5134262;27;19915;-68
2023/04/23 09:37:39;;;;;;;;;;;;;;;;;;5091265;27;20386;-68
2023/04/23 09:40:31;;;;;;;;;;;;;;;;;;5092031;28;19917;-69
2023/04/23 09:42:57;;;;;;;;;;;;;;;;;;5091329;28;19965;-69
2023/04/23 09:45:26;;;;;;;;;;;;;;;;;;5090870;28;19908;-68
2023/04/23 09:47:52;;;;;;;;;;;;;;;;;;5091298;28;19908;-70
2023/04/23 09:50:18;;;;;;;;;;;;;;;;;;5089495;28;20361;-69
2023/04/23 09:52:44;;;;;;;;;;;;;;;;;;5091350;28;19909;-68
2023/04/23 09:55:10;;;;;;;;;;;;;;;;;;5091011;28;19913;-68
2023/04/23 09:57:36;;;;;;;;;;;;;;;;;;5090550;28;19919;-68
2023/04/23 10:00:04;;;;;;;;;;;;;;;;;;5090840;28;20266;-68
2023/04/23 10:02:32;;;;;;;;;;;;;;;;;;5091145;28;19912;-68
2023/04/23 10:04:58;;;;;;;;;;;;;;;;;;5090484;28;19961;-68
2023/04/23 10:08:36;;;;;;;;;;;;;;;;;;5173904;27;20010;-67
2023/04/23 10:11:02;;;;;;;;;;;;;;;;;;5173641;27;19911;-68
2023/04/23 10:13:28;;;;;;;;;;;;;;;;;;5154417;27;19913;-67
2023/04/23 10:15:55;;;;;;;;;;;;;;;;;;5173562;27;20260;-68
2023/04/23 10:20:46;;;;;;;;;;;;;;;;;;5091341;28;19916;-69
2023/04/23 10:26:46;;;;;;;;;;;;;;;;;;5091207;27;19916;-68
2023/04/23 10:31:29;;;;;;;;;;;;;;;;;;5091728;27;19916;-69
2023/04/23 10:37:10;;;;;;;;;;;;;;;;;;5092060;27;19923;-68
2023/04/23 10:39:36;;;;;;;;;;;;;;;;;;5090860;28;19912;-68
2023/04/23 10:42:02;;;;;;;;;;;;;;;;;;5091298;28;20024;-69
2023/04/23 10:44:28;;;;;;;;;;;;;;;;;;5091318;28;20290;-69
2023/04/23 10:46:56;;;;;;;;;;;;;;;;;;5090808;28;19908;-68
2023/04/23 10:49:21;;;;;;;;;;;;;;;;;;5089986;28;19915;-68
2023/04/23 10:51:48;;;;;;;;;;;;;;;;;;5091400;28;20373;-69
2023/04/23 10:54:14;;;;;;;;;;;;;;;;;;5090703;28;20365;-69
2023/04/23 10:56:40;;;;;;;;;;;;;;;;;;5091025;28;20018;-68
2023/04/23 10:59:07;;;;;;;;;;;;;;;;;;5089621;28;19908;-68
2023/04/23 11:01:33;;;;;;;;;;;;;;;;;;5090748;28;19909;-69
2023/04/23 11:03:59;;;;;;;;;;;;;;;;;;5091141;28;20054;-68
2023/04/23 11:06:26;;;;;;;;;;;;;;;;;;5091223;28;20283;-69
2023/04/23 11:08:52;;;;;;;;;;;;;;;;;;5090212;28;19955;-69
2023/04/23 11:11:53;;;;;;;;;;;;;;;;;;5091720;27;19916;-69
2023/04/23 11:14:19;;;;;;;;;;;;;;;;;;5091392;28;20003;-68
2023/04/23 11:16:45;;;;;;;;;;;;;;;;;;5091316;28;19955;-69
2023/04/23 11:19:11;;;;;;;;;;;;;;;;;;5091235;28;19909;-68
2023/04/23 11:24:05;;;;;;;;;;;;;;;;;;5091425;27;20296;-68
2023/04/23 11:26:31;;;;;;;;;;;;;;;;;;5091361;28;20010;-68
2023/04/23 11:28:57;;;;;;;;;;;;;;;;;;5090874;28;20265;-69
2023/04/23 11:31:23;;;;;;;;;;;;;;;;;;5091242;28;20280;-68
2023/04/23 11:33:49;;;;;;;;;;;;;;;;;;5090019;28;20346;-68
2023/04/23 11:37:24;;;;;;;;;;;;;;;;;;5091298;28;19916;-68
2023/04/23 11:40:52;;;;;;;;;;;;;;;;;;5153234;27;19912;-69
2023/04/23 11:43:20;;;;;;;;;;;;;;;;;;5152968;27;19921;-69
2023/04/23 11:45:46;;;;;;;;;;;;;;;;;;5134214;27;19907;-68
2023/04/23 11:50:32;;;;;;;;;;;;;;;;;;5091352;27;20284;-68
2023/04/23 11:52:57;;;;;;;;;;;;;;;;;;5091463;28;19923;-68
2023/04/23 11:55:23;;;;;;;;;;;;;;;;;;5091292;28;19909;-68
2023/04/23 11:57:49;;;;;;;;;;;;;;;;;;5090848;28;19909;-69
2023/04/23 12:02:39;;;;;;;;;;;;;;;;;;5091668;27;19923;-69
2023/04/23 12:05:05;;;;;;;;;;;;;;;;;;5091023;28;20001;-69
2023/04/23 12:07:31;;;;;;;;;;;;;;;;;;5091253;28;20345;-68
2023/04/23 12:09:59;;;;;;;;;;;;;;;;;;5091247;28;19940;-68
2023/04/23 12:12:24;;;;;;;;;;;;;;;;;;5090804;28;19912;-68
2023/04/23 12:14:50;;;;;;;;;;;;;;;;;;5091279;28;19909;-69
2023/04/23 12:17:16;;;;;;;;;;;;;;;;;;5089911;28;19915;-69
2023/04/23 12:21:50;;;;;;;;;;;;;;;;;;5091872;28;19923;-68
2023/04/23 12:24:16;;;;;;;;;;;;;;;;;;5091433;28;20007;-68
2023/04/23 12:26:45;;;;;;;;;;;;;;;;;;5090892;28;19954;-68
2023/04/23 12:29:11;;;;;;;;;;;;;;;;;;5091453;28;19908;-68
2023/04/23 12:31:37;;;;;;;;;;;;;;;;;;5091057;28;19965;-68
2023/04/23 12:34:03;;;;;;;;;;;;;;;;;;5090686;28;19908;-68
2023/04/23 12:36:30;;;;;;;;;;;;;;;;;;5090983;28;20007;-68
2023/04/23 12:38:56;;;;;;;;;;;;;;;;;;5091190;28;19909;-67
2023/04/23 12:41:22;;;;;;;;;;;;;;;;;;5089293;28;19961;-67
2023/04/23 12:43:49;;;;;;;;;;;;;;;;;;5091549;28;19908;-68
2023/04/23 12:46:15;;;;;;;;;;;;;;;;;;5089436;28;20280;-69
2023/04/23 12:48:41;;;;;;;;;;;;;;;;;;5090890;28;19909;-69
2023/04/23 12:51:06;;;;;;;;;;;;;;;;;;5091053;28;20344;-69
2023/04/23 12:53:32;;;;;;;;;;;;;;;;;;5090616;28;20388;-68
2023/04/23 12:55:58;;;;;;;;;;;;;;;;;;5091036;28;19909;-69
2023/04/23 12:58:26;;;;;;;;;;;;;;;;;;5089371;28;19916;-68
2023/04/23 13:00:52;;;;;;;;;;;;;;;;;;5090189;28;19970;-69
2023/04/23 13:03:18;;;;;;;;;;;;;;;;;;5089342;28;19908;-69
2023/04/23 13:05:44;;;;;;;;;;;;;;;;;;5090572;28;19958;-69
2023/04/23 13:08:10;;;;;;;;;;;;;;;;;;5088835;28;19947;-69
2023/04/23 13:11:08;;;;;;;;;;;;;;;;;;5081520;27;2125196;-68
2023/04/23 13:13:34;;;;;;;;;;;;;;;;;;5152925;27;19911;-68
2023/04/23 13:16:00;;;;;;;;;;;;;;;;;;5152377;27;20354;-69
2023/04/23 13:18:26;;;;;;;;;;;;;;;;;;5152789;27;19907;-68
2023/04/23 13:20:52;;;;;;;;;;;;;;;;;;5152924;27;19907;-69
2023/04/23 13:23:18;;;;;;;;;;;;;;;;;;5152319;27;19914;-68
2023/04/23 13:25:44;;;;;;;;;;;;;;;;;;5152894;27;19935;-69
2023/04/23 13:28:10;;;;;;;;;;;;;;;;;;5152665;27;20421;-69
2023/04/23 13:30:36;;;;;;;;;;;;;;;;;;5152026;27;19915;-69
2023/04/23 13:33:02;;;;;;;;;;;;;;;;;;5152596;27;19907;-69
2023/04/23 13:35:27;;;;;;;;;;;;;;;;;;5152057;27;19954;-70
2023/04/23 13:37:53;;;;;;;;;;;;;;;;;;5133839;27;19933;-67
2023/04/23 13:40:19;;;;;;;;;;;;;;;;;;5152510;27;19956;-69
2023/04/23 13:42:48;;;;;;;;;;;;;;;;;;5151936;27;19972;-68
2023/04/23 13:45:14;;;;;;;;;;;;;;;;;;5152647;27;19914;-70
2023/04/23 13:47:40;;;;;;;;;;;;;;;;;;5152589;27;20016;-68
2023/04/23 13:50:06;;;;;;;;;;;;;;;;;;5133075;27;19951;-69
2023/04/23 13:52:32;;;;;;;;;;;;;;;;;;5152141;27;19960;-69
2023/04/23 13:55:01;;;;;;;;;;;;;;;;;;5152011;27;19953;-69
2023/04/23 13:57:27;;;;;;;;;;;;;;;;;;5151844;27;20283;-69
2023/04/23 13:59:54;;;;;;;;;;;;;;;;;;5152147;27;19907;-69
2023/04/23 14:02:20;;;;;;;;;;;;;;;;;;5151862;27;19912;-69
2023/04/23 14:04:46;;;;;;;;;;;;;;;;;;5151618;27;19913;-69
2023/04/23 14:07:12;;;;;;;;;;;;;;;;;;5133161;27;19908;-69
2023/04/23 14:09:38;;;;;;;;;;;;;;;;;;5151499;27;19915;-68
2023/04/23 14:12:04;;;;;;;;;;;;;;;;;;5151370;27;19915;-69
2023/04/23 14:14:29;;;;;;;;;;;;;;;;;;5151820;27;20010;-69
2023/04/23 14:16:55;;;;;;;;;;;;;;;;;;5151929;27;19933;-70
2023/04/23 14:19:21;;;;;;;;;;;;;;;;;;5151303;27;20447;-69
2023/04/23 14:21:47;;;;;;;;;;;;;;;;;;5141810;27;19907;-68
2023/04/23 14:24:13;;;;;;;;;;;;;;;;;;5137655;27;19907;-69
2023/04/23 14:26:41;;;;;;;;;;;;;;;;;;5137325;27;19915;-70
2023/04/23 14:29:07;;;;;;;;;;;;;;;;;;5137663;27;20313;-69
2023/04/23 14:31:34;;;;;;;;;;;;;;;;;;5137448;27;19912;-70
2023/04/23 14:34:00;;;;;;;;;;;;;;;;;;5137571;27;19963;-69
2023/04/23 14:36:26;;;;;;;;;;;;;;;;;;5119109;27;19954;-69
2023/04/23 14:38:52;;;;;;;;;;;;;;;;;;5136975;27;20324;-70
2023/04/23 14:41:18;;;;;;;;;;;;;;;;;;5137496;27;19915;-68
2023/04/23 14:43:44;;;;;;;;;;;;;;;;;;5118936;27;19978;-69
2023/04/23 14:46:10;;;;;;;;;;;;;;;;;;5136722;27;19918;-68
2023/04/23 14:48:36;;;;;;;;;;;;;;;;;;5137364;27;20260;-69
2023/04/23 14:51:02;;;;;;;;;;;;;;;;;;5137113;27;19959;-68
2023/04/23 14:53:27;;;;;;;;;;;;;;;;;;5136727;27;19943;-68
2023/04/23 14:55:53;;;;;;;;;;;;;;;;;;5118784;27;20299;-68
2023/04/23 14:58:19;;;;;;;;;;;;;;;;;;5137106;27;20010;-68
2023/04/23 15:00:45;;;;;;;;;;;;;;;;;;5136509;27;19908;-68
2023/04/23 15:03:11;;;;;;;;;;;;;;;;;;5118514;27;20279;-68
2023/04/23 15:05:38;;;;;;;;;;;;;;;;;;5136880;27;19907;-68
2023/04/23 15:08:04;;;;;;;;;;;;;;;;;;5117849;27;19907;-69
2023/04/23 15:10:30;;;;;;;;;;;;;;;;;;5118139;27;19923;-69
2023/04/23 15:12:58;;;;;;;;;;;;;;;;;;5136773;27;20041;-69
2023/04/23 15:15:24;;;;;;;;;;;;;;;;;;5136282;27;19908;-68
2023/04/23 15:17:50;;;;;;;;;;;;;;;;;;5136645;27;19912;-68
2023/04/23 15:20:16;;;;;;;;;;;;;;;;;;5137066;27;20364;-70
2023/04/23 15:22:42;;;;;;;;;;;;;;;;;;5136201;27;20333;-69
2023/04/23 15:25:08;;;;;;;;;;;;;;;;;;5136864;27;19946;-69
2023/04/23 15:27:34;;;;;;;;;;;;;;;;;;5136475;27;19954;-68
2023/04/23 15:30:00;;;;;;;;;;;;;;;;;;5135919;27;19920;-68
2023/04/23 15:32:26;;;;;;;;;;;;;;;;;;5117102;28;19907;-70
2023/04/23 15:34:52;;;;;;;;;;;;;;;;;;5135773;27;20002;-69
2023/04/23 15:37:19;;;;;;;;;;;;;;;;;;5136299;27;19960;-68
2023/04/23 15:39:45;;;;;;;;;;;;;;;;;;5136223;27;19915;-68
2023/04/23 15:42:13;;;;;;;;;;;;;;;;;;5135623;27;20097;-68
2023/04/23 15:44:40;;;;;;;;;;;;;;;;;;5136177;27;20364;-68
2023/04/23 15:47:06;;;;;;;;;;;;;;;;;;5136002;27;19907;-68
2023/04/23 15:49:32;;;;;;;;;;;;;;;;;;5117179;27;19916;-68
2023/04/23 15:51:58;;;;;;;;;;;;;;;;;;5135994;27;19907;-69
2023/04/23 15:54:24;;;;;;;;;;;;;;;;;;5135885;27;19908;-68
2023/04/23 15:56:50;;;;;;;;;;;;;;;;;;5135430;27;19915;-68
2023/04/23 15:59:16;;;;;;;;;;;;;;;;;;5135838;27;19952;-68
2023/04/23 16:01:42;;;;;;;;;;;;;;;;;;5135862;27;19914;-69
2023/04/23 16:04:08;;;;;;;;;;;;;;;;;;5135390;27;19914;-68
2023/04/23 16:06:34;;;;;;;;;;;;;;;;;;5135672;27;20279;-68
2023/04/23 16:09:01;;;;;;;;;;;;;;;;;;5135520;27;19911;-68
2023/04/23 16:11:27;;;;;;;;;;;;;;;;;;5116610;27;19919;-68
2023/04/23 16:13:54;;;;;;;;;;;;;;;;;;5117126;27;19914;-68
2023/04/23 16:16:20;;;;;;;;;;;;;;;;;;5135427;27;19914;-68
2023/04/23 16:18:46;;;;;;;;;;;;;;;;;;5135001;27;19907;-69
2023/04/23 16:21:12;;;;;;;;;;;;;;;;;;5135435;27;19908;-68
2023/04/23 16:23:38;;;;;;;;;;;;;;;;;;5135263;27;19915;-68
2023/04/23 16:26:07;;;;;;;;;;;;;;;;;;5135006;27;19952;-69
2023/04/23 16:28:33;;;;;;;;;;;;;;;;;;5135332;27;19908;-69
2023/04/23 16:30:59;;;;;;;;;;;;;;;;;;5116741;27;19915;-68
2023/04/23 16:33:26;;;;;;;;;;;;;;;;;;5134890;27;19915;-69
2023/04/23 16:35:52;;;;;;;;;;;;;;;;;;5135162;27;19922;-69
2023/04/23 16:38:18;;;;;;;;;;;;;;;;;;5116315;27;19911;-68
2023/04/23 16:40:46;;;;;;;;;;;;;;;;;;5135157;27;20240;-68
2023/04/23 16:43:12;;;;;;;;;;;;;;;;;;5135346;27;20330;-68
2023/04/23 16:50:48;;;;;;;;;;;;;;;;;;5092186;27;19922;-67
2023/04/23 16:53:14;;;;;;;;;;;;;;;;;;5090977;28;19958;-68
2023/04/23 16:57:11;;;;;;;;;;;;;;;;;;5091416;27;19916;-68
2023/04/23 16:59:37;;;;;;;;;;;;;;;;;;5090937;28;20014;-68
2023/04/23 17:05:57;;;;;;;;;;;;;;;;;;5092020;27;19923;-69
2023/04/23 17:09:56;;;;;;;;;;;;;;;;;;5091552;27;20384;-70
2023/04/23 17:12:22;;;;;;;;;;;;;;;;;;5091565;28;19973;-69
2023/04/23 17:14:48;;;;;;;;;;;;;;;;;;5089626;28;20390;-69
2023/04/23 17:17:14;;;;;;;;;;;;;;;;;;5091309;28;20452;-69
2023/04/23 17:20:16;;;;;;;;;;;;;;;;;;5112415;27;20296;-70
2023/04/23 17:22:42;;;;;;;;;;;;;;;;;;5111326;28;20505;-69
2023/04/23 17:25:08;;;;;;;;;;;;;;;;;;5111684;28;19908;-69
2023/04/23 17:27:34;;;;;;;;;;;;;;;;;;5111191;28;19912;-69
2023/04/23 17:32:30;;;;;;;;;;;;;;;;;;5092129;27;20381;-69
2023/04/23 17:34:56;;;;;;;;;;;;;;;;;;5091023;28;20011;-68
2023/04/23 17:37:22;;;;;;;;;;;;;;;;;;5090037;28;20422;-69
2023/04/23 17:39:48;;;;;;;;;;;;;;;;;;5091300;28;20357;-68
2023/04/23 17:45:12;;;;;;;;;;;;;;;;;;5091835;27;19913;-69
2023/04/23 17:49:39;;;;;;;;;;;;;;;;;;5152437;27;19911;-68
2023/04/23 17:52:06;;;;;;;;;;;;;;;;;;5152871;27;19950;-68
2023/04/23 17:54:31;;;;;;;;;;;;;;;;;;5152829;27;19913;-67
2023/04/23 17:56:57;;;;;;;;;;;;;;;;;;5152574;27;19907;-68
2023/04/23 18:00:30;;;;;;;;;;;;;;;;;;5153041;27;19915;-68
2023/04/23 18:02:55;;;;;;;;;;;;;;;;;;5152858;27;19918;-68
2023/04/23 18:05:21;;;;;;;;;;;;;;;;;;5134410;27;20363;-68